KSEP/SEP METAR and TAF weather

Enter ICAO airport designator
Station Type Date Time Source
KSEP METAR 2019/11/14 03:55 UTC NOAA

KSEP 140355Z AUTO 15003KT 10SM SCT043 BKN120 04/M01 A3012 RMK AO2 T00401007


Station Type Date Time Source
KSEP Decoded METAR 2019/11/14 03:55 UTC NOAA

Stephenville, Clark Field Municipal Airport, TX, United States (KSEP) 32-13N 098-11W 402M
Nov 13, 2019 - 10:55 PM EST / 2019.11.14 0355 UTC
Wind: from the SSE (150 degrees) at 3 MPH (3 KT):0
Visibility: 10 mile(s):0
Sky conditions: mostly cloudy
Temperature: 39.2 F (4.0 C)
Dew Point: 30.7 F (-0.7 C)
Relative Humidity: 71%
Pressure (altimeter): 30.12 in. Hg (1019 hPa)
ob: KSEP 140355Z AUTO 15003KT 10SM SCT043 BKN120 04/M01 A3012 RMK AO2 T00401007
cycle: 4

Station Type Date Time Source
KSEP TAF UTC NOAA

Error!

Example: see airport list